Republic, Missouri
Current Conditions -  °F | °C
As of 5:52 AM on Sunday 25 Jan 2015 (Local Time) from KSGF Reporting Station
Overcast Overcast  
Wind Chill: 43°   Ceiling: 4900
Heat Index: 48°   Visibility: 10mi
Dew Point: 36°   Wind: 13mph
Humidity: 63%   Direction: 300°WNW
Pressure: 29.66"   Gusts: 23mph
Location:  37.13°N, 93.48°W
Report Text: KSGF 251152Z 30011G20KT 10SM SCT040 BKN049 OVC055 09/02 A2966 RMK AO2 RAB24E33 SLP045 P0000 60000 T00890022 10100 20089 56009
Loading
Personal Weather Stations






























Interactive Weather Map New forecast layout! Learn more

10-Day Weather Forecast

Advertisements
Track Severe Weather on mobile